createdAt,value
2017-11-01T00:01:05.488Z,17.02
2017-11-01T00:03:31.888Z,16.80
2017-11-01T00:05:58.365Z,17.83
2017-11-01T00:08:25.511Z,14.93
2017-11-01T00:10:51.904Z,12.93
2017-11-01T00:13:18.330Z,13.18
2017-11-01T00:15:44.749Z,13.77
2017-11-01T00:18:11.244Z,10.35
2017-11-01T00:20:38.379Z,13.43
2017-11-01T00:23:04.816Z,11.90
2017-11-01T00:25:31.232Z,9.73
2017-11-01T00:27:57.660Z,11.85
2017-11-01T00:30:24.936Z,11.65
2017-11-01T00:32:51.323Z,10.55
2017-11-01T00:35:17.716Z,9.93
2017-11-01T00:37:45.023Z,10.20
2017-11-01T00:40:11.473Z,12.63
2017-11-01T00:42:37.882Z,9.60
2017-11-01T00:45:04.311Z,9.35
2017-11-01T00:47:30.706Z,18.27
2017-11-01T00:49:57.860Z,10.15
2017-11-01T00:52:25.007Z,11.10
2017-11-01T00:54:52.190Z,10.35
2017-11-01T00:57:18.594Z,9.07
2017-11-01T00:59:45.727Z,10.25
2017-11-01T01:02:12.174Z,8.35
2017-11-01T01:04:39.328Z,8.25
2017-11-01T01:07:06.464Z,8.38
2017-11-01T01:09:33.627Z,7.45
2017-11-01T01:12:00.738Z,7.70
2017-11-01T01:14:27.124Z,8.40
2017-11-01T01:16:53.528Z,8.00
2017-11-01T01:19:20.668Z,7.25
2017-11-01T01:21:47.080Z,11.12
2017-11-01T01:24:13.476Z,5.78
2017-11-01T01:26:39.886Z,7.20
2017-11-01T01:29:07.016Z,6.07
2017-11-01T01:31:33.425Z,8.65
2017-11-01T01:33:59.827Z,8.05
2017-11-01T01:36:26.251Z,7.00
2017-11-01T01:38:52.667Z,11.05
2017-11-01T01:41:19.867Z,10.85
2017-11-01T01:43:46.265Z,9.70
2017-11-01T01:46:12.683Z,7.62
2017-11-01T01:48:39.868Z,8.70
2017-11-01T01:51:06.285Z,5.90
2017-11-01T01:53:32.716Z,9.65
2017-11-01T01:55:59.099Z,7.12
2017-11-01T01:58:25.543Z,7.20
2017-11-01T02:00:52.764Z,6.28
2017-11-01T02:03:19.210Z,7.35
2017-11-01T02:05:45.625Z,9.57
2017-11-01T02:08:12.083Z,8.30
2017-11-01T02:10:38.479Z,6.57
2017-11-01T02:13:04.935Z,7.12
2017-11-01T02:15:32.236Z,6.03
2017-11-01T02:17:59.467Z,9.07
2017-11-01T02:20:26.020Z,6.10
2017-11-01T02:22:53.208Z,6.57
2017-11-01T02:25:19.652Z,6.00
2017-11-01T02:27:46.132Z,7.70
2017-11-01T02:30:13.327Z,5.60
2017-11-01T02:32:39.739Z,7.40
2017-11-01T02:35:06.203Z,6.18
2017-11-01T02:37:32.673Z,6.03
2017-11-01T02:39:59.156Z,7.55
2017-11-01T02:42:25.791Z,7.37
2017-11-01T02:44:52.229Z,6.40
2017-11-01T02:47:18.690Z,7.25
2017-11-01T02:49:45.139Z,6.95
2017-11-01T02:52:11.597Z,4.20
2017-11-01T02:54:38.793Z,6.80
2017-11-01T02:57:05.244Z,6.15
2017-11-01T02:59:31.730Z,6.55
2017-11-01T03:02:01.104Z,8.30
2017-11-01T03:04:28.279Z,6.60
2017-11-01T03:06:54.739Z,7.65
2017-11-01T03:09:21.212Z,8.30
2017-11-01T03:11:47.667Z,6.62
2017-11-01T03:14:14.868Z,5.85
2017-11-01T03:16:41.319Z,4.97
2017-11-01T03:19:07.792Z,6.30
2017-11-01T03:21:35.868Z,9.52
2017-11-01T03:24:03.047Z,6.78
2017-11-01T03:26:29.516Z,5.65
2017-11-01T03:28:55.959Z,5.65
2017-11-01T03:31:22.423Z,10.35
2017-11-01T03:33:48.881Z,7.72
2017-11-01T03:36:15.332Z,5.47
2017-11-01T03:38:41.799Z,6.82
2017-11-01T03:41:08.960Z,5.82
2017-11-01T03:43:36.155Z,6.03
2017-11-01T03:46:02.570Z,5.62
2017-11-01T03:48:29.024Z,7.05
2017-11-01T03:50:55.501Z,5.95
2017-11-01T03:53:22.680Z,8.07
2017-11-01T03:55:49.100Z,5.50
2017-11-01T03:58:16.321Z,6.40
2017-11-01T04:00:42.761Z,6.43
2017-11-01T04:03:09.235Z,6.60
2017-11-01T04:05:35.660Z,11.00
2017-11-01T04:08:02.119Z,8.80
2017-11-01T04:10:28.552Z,7.70
2017-11-01T04:12:54.984Z,8.80
2017-11-01T04:15:21.440Z,6.97
2017-11-01T04:17:48.128Z,8.77
2017-11-01T04:20:16.284Z,6.45
2017-11-01T04:22:43.460Z,8.50
2017-11-01T04:25:09.871Z,8.35
2017-11-01T04:27:37.061Z,5.25
2017-11-01T04:30:03.515Z,5.30
2017-11-01T04:32:29.996Z,7.25
2017-11-01T04:34:57.191Z,11.82
2017-11-01T04:37:23.639Z,5.43
2017-11-01T04:39:50.117Z,5.75
2017-11-01T04:42:17.285Z,6.00
2017-11-01T04:44:43.759Z,4.32
2017-11-01T04:47:10.227Z,8.25
2017-11-01T04:49:37.446Z,4.85
2017-11-01T04:52:03.922Z,7.97
2017-11-01T04:54:31.125Z,6.07
2017-11-01T04:56:58.495Z,4.90
2017-11-01T04:59:24.967Z,6.85
2017-11-01T05:01:54.209Z,5.25
2017-11-01T05:04:20.663Z,4.78
2017-11-01T05:06:47.132Z,4.25
2017-11-01T05:09:13.579Z,5.03
2017-11-01T05:11:40.020Z,7.00
2017-11-01T05:14:16.336Z,6.35
2017-11-01T05:16:43.651Z,4.68
2017-11-01T05:19:10.124Z,5.47
2017-11-01T05:21:36.568Z,5.05
2017-11-01T05:24:03.732Z,6.55
2017-11-01T05:26:30.920Z,6.10
2017-11-01T05:28:57.399Z,10.57
2017-11-01T05:31:24.623Z,5.10
2017-11-01T05:33:51.044Z,5.47
2017-11-01T05:36:17.500Z,6.97
2017-11-01T05:38:43.923Z,6.28
2017-11-01T05:41:11.092Z,5.00
2017-11-01T05:43:37.581Z,14.02
2017-11-01T05:46:04.023Z,4.85
2017-11-01T05:48:30.491Z,6.00
2017-11-01T05:50:56.976Z,7.03
2017-11-01T05:53:23.416Z,5.72
2017-11-01T05:55:49.889Z,7.65
2017-11-01T05:58:16.495Z,11.55
2017-11-01T06:00:42.947Z,9.02
2017-11-01T06:03:09.423Z,7.87
2017-11-01T06:05:35.874Z,6.28
2017-11-01T06:08:02.364Z,5.90
2017-11-01T06:10:28.832Z,9.60
2017-11-01T06:12:55.268Z,9.73
2017-11-01T06:15:21.729Z,11.70
2017-11-01T06:17:48.250Z,7.32
2017-11-01T06:20:14.696Z,7.35
2017-11-01T06:22:41.157Z,10.02
2017-11-01T06:25:07.593Z,10.13
2017-11-01T06:27:34.076Z,11.43
2017-11-01T06:30:00.521Z,9.27
2017-11-01T06:32:26.956Z,8.85
2017-11-01T06:34:53.420Z,10.93
2017-11-01T06:37:19.843Z,11.48
2017-11-01T06:39:46.388Z,10.18
2017-11-01T06:42:13.099Z,8.73
2017-11-01T06:44:39.604Z,8.65
2017-11-01T06:47:06.063Z,8.88
2017-11-01T06:49:32.540Z,12.55
2017-11-01T06:51:59.012Z,12.02
2017-11-01T06:54:25.600Z,8.48
2017-11-01T06:56:52.224Z,9.52
2017-11-01T06:59:18.768Z,8.07
2017-11-01T07:01:45.208Z,8.15
2017-11-01T07:04:12.375Z,11.18
2017-11-01T07:06:38.816Z,8.48
2017-11-01T07:09:08.802Z,12.13
2017-11-01T07:11:35.240Z,7.90
2017-11-01T07:14:01.712Z,9.30
2017-11-01T07:16:28.889Z,14.25
2017-11-01T07:18:55.300Z,9.20
2017-11-01T07:21:21.847Z,13.35
2017-11-01T07:23:48.308Z,9.20
2017-11-01T07:26:14.687Z,11.60
2017-11-01T07:28:41.913Z,8.57
2017-11-01T07:31:08.305Z,10.20
2017-11-01T07:33:34.695Z,11.40
2017-11-01T07:36:01.887Z,9.20
2017-11-01T07:38:28.291Z,8.35
2017-11-01T07:40:55.460Z,9.00
2017-11-01T07:43:21.856Z,8.35
2017-11-01T07:45:49.016Z,8.70
2017-11-01T07:48:16.189Z,18.25
2017-11-01T07:50:42.596Z,11.23
2017-11-01T07:53:09.765Z,11.43
2017-11-01T07:55:36.168Z,7.62
2017-11-01T07:58:02.599Z,9.20
2017-11-01T08:00:29.026Z,11.98
2017-11-01T08:02:55.452Z,9.73
2017-11-01T08:05:21.863Z,11.98
2017-11-01T08:07:48.252Z,10.20
2017-11-01T08:10:15.410Z,8.10
2017-11-01T08:12:41.807Z,9.13
2017-11-01T08:15:08.224Z,12.23
2017-11-01T08:17:34.684Z,8.33
2017-11-01T08:20:01.831Z,13.80
2017-11-01T08:22:28.991Z,11.40
2017-11-01T08:24:56.122Z,12.47
2017-11-01T08:27:22.802Z,10.57
2017-11-01T08:29:49.203Z,8.90
2017-11-01T08:32:15.611Z,13.37
2017-11-01T08:34:42.080Z,14.00
2017-11-01T08:37:09.207Z,10.80
2017-11-01T08:39:35.628Z,13.43
2017-11-01T08:42:02.049Z,12.20
2017-11-01T08:44:28.468Z,14.70
2017-11-01T08:46:54.964Z,15.10
2017-11-01T08:49:22.139Z,13.70
2017-11-01T08:51:48.579Z,13.40
2017-11-01T08:54:15.020Z,13.73
2017-11-01T08:56:41.456Z,16.83
2017-11-01T08:59:08.432Z,19.67
2017-11-01T09:01:34.992Z,15.07
2017-11-01T09:04:02.160Z,12.67
2017-11-01T09:06:28.576Z,15.17
2017-11-01T09:08:54.963Z,12.47
2017-11-01T09:11:21.377Z,12.27
2017-11-01T09:13:47.748Z,14.53
2017-11-01T09:16:14.160Z,12.20
2017-11-01T09:18:40.579Z,11.93
2017-11-01T09:21:07.203Z,11.27
2017-11-01T09:23:33.606Z,14.10
2017-11-01T09:25:59.988Z,11.00
2017-11-01T09:28:26.439Z,9.97
2017-11-01T09:30:52.859Z,15.33
2017-11-01T09:33:19.264Z,13.47
2017-11-01T09:35:45.700Z,12.30
2017-11-01T09:38:12.115Z,15.33
2017-11-01T09:40:38.560Z,13.47
2017-11-01T09:43:04.965Z,13.73
2017-11-01T09:45:32.132Z,15.63
2017-11-01T09:47:58.540Z,11.87
2017-11-01T09:50:24.922Z,10.97
2017-11-01T09:52:51.331Z,11.23
2017-11-01T09:55:17.738Z,12.77
2017-11-01T09:57:44.187Z,15.20
2017-11-01T10:00:11.379Z,16.73
2017-11-01T10:02:37.927Z,10.33
2017-11-01T10:05:04.312Z,11.17
2017-11-01T10:07:31.452Z,14.13
2017-11-01T10:09:58.615Z,10.43
2017-11-01T10:12:25.408Z,11.57
2017-11-01T10:14:51.899Z,14.53
2017-11-01T10:17:18.400Z,11.60
2017-11-01T10:19:44.873Z,11.17
2017-11-01T10:22:12.085Z,10.10
2017-11-01T10:24:39.262Z,11.50
2017-11-01T10:27:06.399Z,9.73
2017-11-01T10:29:33.564Z,11.87
2017-11-01T10:32:00.240Z,14.33
2017-11-01T10:34:26.664Z,12.87
2017-11-01T10:36:53.088Z,12.10
2017-11-01T10:39:19.495Z,9.40
2017-11-01T10:41:46.636Z,10.23
2017-11-01T10:44:13.822Z,9.90
2017-11-01T10:46:40.240Z,12.53
2017-11-01T10:49:06.652Z,11.33
2017-11-01T10:51:33.851Z,10.93
2017-11-01T10:54:00.328Z,12.70
2017-11-01T10:56:26.747Z,11.83
2017-11-01T10:58:53.173Z,9.40
2017-11-01T11:01:19.656Z,13.13
2017-11-01T11:03:46.099Z,11.97
2017-11-01T11:06:12.587Z,12.83
2017-11-01T11:08:39.061Z,9.67
2017-11-01T11:11:05.479Z,8.20
2017-11-01T11:13:32.641Z,8.93
2017-11-01T11:15:59.079Z,10.53
2017-11-01T11:18:25.471Z,12.27
2017-11-01T11:20:51.927Z,8.07
2017-11-01T11:23:18.675Z,9.33
2017-11-01T11:25:45.860Z,12.10
2017-11-01T11:28:13.015Z,12.40
2017-11-01T11:30:39.419Z,9.23
2017-11-01T11:33:05.827Z,12.23
2017-11-01T11:35:33.172Z,8.87
2017-11-01T11:37:59.568Z,9.50
2017-11-01T11:40:26.036Z,8.60
2017-11-01T11:42:53.727Z,8.30
2017-11-01T11:45:21.378Z,9.43
2017-11-01T11:47:49.028Z,8.13
2017-11-01T11:50:16.576Z,14.90
2017-11-01T11:52:43.200Z,9.40
2017-11-01T11:55:10.498Z,7.67
2017-11-01T11:57:37.433Z,8.10
2017-11-01T12:00:04.211Z,8.83
2017-11-01T12:02:30.820Z,8.20
2017-11-01T12:04:57.501Z,12.90
2017-11-01T12:07:29.774Z,8.17
2017-11-01T12:09:56.336Z,9.13
2017-11-01T12:12:22.953Z,7.83
2017-11-01T12:14:52.704Z,6.97
2017-11-01T12:17:20.859Z,8.17
2017-11-01T12:19:48.953Z,8.50
2017-11-01T12:22:15.629Z,9.50
2017-11-01T12:24:42.214Z,6.23
2017-11-01T12:27:09.481Z,11.20
2017-11-01T12:29:36.089Z,8.47
2017-11-01T12:32:02.649Z,6.80
2017-11-01T12:34:29.214Z,8.13
2017-11-01T12:36:55.685Z,7.23
2017-11-01T12:39:22.194Z,8.37
2017-11-01T12:41:48.711Z,8.13
2017-11-01T12:44:16.123Z,8.07
2017-11-01T12:46:43.357Z,7.97
2017-11-01T12:49:09.799Z,7.97
2017-11-01T12:51:36.183Z,8.20
2017-11-01T12:54:02.713Z,7.63
2017-11-01T12:56:29.179Z,10.57
2017-11-01T12:58:55.672Z,11.17
2017-11-01T13:01:22.108Z,9.50
2017-11-01T13:03:48.768Z,7.17
2017-11-01T13:06:15.374Z,8.30
2017-11-01T13:08:41.957Z,7.10
2017-11-01T13:11:08.427Z,7.53
2017-11-01T13:13:34.845Z,7.23
2017-11-01T13:16:01.319Z,7.70
2017-11-01T13:18:27.735Z,9.47
2017-11-01T13:20:54.177Z,8.20
2017-11-01T13:23:20.718Z,7.40
2017-11-01T13:25:47.176Z,7.13
2017-11-01T13:28:13.668Z,8.77
2017-11-01T13:30:40.096Z,9.30
2017-11-01T13:33:06.560Z,9.20
2017-11-01T13:35:33.055Z,9.13
2017-11-01T13:37:59.908Z,7.27
2017-11-01T13:40:26.352Z,12.40
2017-11-01T13:42:53.711Z,7.83
2017-11-01T13:45:20.960Z,9.50
2017-11-01T13:47:48.219Z,9.10
2017-11-01T13:50:15.001Z,9.17
2017-11-01T13:52:42.565Z,7.07
2017-11-01T13:55:10.124Z,10.07
2017-11-01T13:57:37.399Z,13.83
2017-11-01T14:03:19.166Z,6.30
2017-11-01T14:05:46.788Z,7.73
2017-11-01T14:08:15.997Z,8.17
2017-11-01T14:10:45.552Z,7.33
2017-11-01T14:13:14.405Z,12.90
2017-11-01T14:15:40.906Z,10.53
2017-11-01T14:18:07.332Z,8.03
2017-11-01T14:20:33.731Z,11.70
2017-11-01T14:23:00.270Z,7.90
2017-11-01T14:25:28.699Z,9.03
2017-11-01T14:27:56.176Z,7.23
2017-11-01T14:30:26.074Z,9.63
2017-11-01T14:32:55.016Z,8.63
2017-11-01T14:35:22.383Z,11.30
2017-11-01T14:37:48.811Z,8.37
2017-11-01T14:40:20.042Z,11.00
2017-11-01T14:42:46.601Z,10.47
2017-11-01T14:54:24.732Z,9.10
2017-11-01T14:56:52.570Z,7.83
2017-11-01T14:59:19.019Z,13.53
2017-11-01T15:01:46.789Z,12.13
2017-11-01T15:04:13.231Z,10.83
2017-11-01T15:06:39.734Z,9.47
2017-11-01T15:09:06.292Z,11.23
2017-11-01T15:11:32.839Z,7.47
2017-11-01T15:13:59.420Z,8.63
2017-11-01T15:16:25.896Z,7.00
2017-11-01T15:18:53.237Z,11.53
2017-11-01T15:21:19.779Z,11.30
2017-11-01T15:23:47.028Z,8.40
2017-11-01T15:26:14.182Z,8.30
2017-11-01T15:28:41.333Z,7.33
2017-11-01T15:31:08.528Z,8.87
2017-11-01T15:33:35.041Z,7.43
2017-11-01T15:36:01.548Z,10.50
2017-11-01T15:38:28.738Z,10.90
2017-11-01T15:40:55.272Z,7.60
2017-11-01T15:43:21.924Z,8.60
2017-11-01T15:45:48.372Z,7.80
2017-11-01T15:48:15.986Z,9.80
2017-11-01T15:50:42.388Z,9.37
2017-11-01T15:53:09.660Z,9.87
2017-11-01T15:55:36.264Z,12.90
2017-11-01T15:58:02.838Z,13.87
2017-11-01T16:00:29.291Z,12.40
2017-11-01T16:02:55.759Z,13.80
2017-11-01T16:05:22.274Z,12.93
2017-11-01T16:07:48.808Z,10.77
2017-11-01T16:10:15.408Z,14.00
2017-11-01T16:12:41.828Z,13.50
2017-11-01T16:15:09.160Z,13.97
2017-11-01T16:17:35.640Z,14.40
2017-11-01T16:20:02.069Z,13.37
2017-11-01T16:22:30.384Z,18.27
2017-11-01T16:24:58.607Z,21.50
2017-11-01T16:27:25.852Z,19.90
2017-11-01T16:29:52.320Z,21.53
2017-11-01T16:32:18.888Z,22.20
2017-11-01T16:34:45.336Z,21.23
2017-11-01T16:37:11.872Z,22.53
2017-11-01T16:39:38.299Z,22.67
2017-11-01T16:42:04.854Z,25.07
2017-11-01T16:44:32.176Z,24.03
2017-11-01T16:46:58.568Z,22.53
2017-11-01T16:49:25.279Z,25.87
2017-11-01T16:51:51.752Z,22.10
2017-11-01T16:54:18.178Z,20.43
2017-11-01T16:56:44.595Z,26.43
2017-11-01T16:59:11.025Z,24.20
2017-11-01T17:01:38.643Z,33.90
2017-11-01T17:04:06.060Z,30.10
2017-11-01T17:06:33.112Z,28.47
2017-11-01T17:08:59.681Z,27.53
2017-11-01T17:11:26.867Z,26.27
2017-11-01T17:13:53.276Z,27.00
2017-11-01T17:16:20.436Z,24.70
2017-11-01T17:18:46.848Z,28.47
2017-11-01T17:21:13.304Z,27.07
2017-11-01T17:23:39.720Z,22.80
2017-11-01T17:26:06.144Z,24.20
2017-11-01T17:28:32.540Z,18.63
2017-11-01T17:30:58.964Z,25.00
2017-11-01T17:33:25.379Z,23.70
2017-11-01T17:35:52.523Z,25.40
2017-11-01T17:38:18.920Z,20.63
2017-11-01T17:40:45.347Z,18.67
2017-11-01T17:43:11.810Z,22.43
2017-11-01T17:45:38.412Z,23.13
2017-11-01T17:48:05.109Z,21.23
2017-11-01T17:50:32.655Z,25.63
2017-11-01T17:53:00.056Z,25.73
2017-11-01T17:55:27.804Z,29.57
2017-11-01T17:57:54.502Z,21.17
2017-11-01T18:00:21.150Z,19.07
2017-11-01T18:02:47.794Z,20.90
2017-11-01T18:05:14.292Z,21.83
2017-11-01T18:07:40.697Z,17.03
2017-11-01T18:10:07.088Z,19.17
2017-11-01T18:12:33.955Z,18.40
2017-11-01T18:15:01.267Z,17.27
2017-11-01T18:17:28.444Z,18.67
2017-11-01T18:19:54.872Z,20.47
2017-11-01T18:22:21.256Z,19.13
2017-11-01T18:24:47.641Z,23.30
2017-11-01T18:27:14.885Z,22.07
2017-11-01T18:29:41.316Z,21.73
2017-11-01T18:32:08.473Z,20.67
2017-11-01T18:34:34.844Z,20.37
2017-11-01T18:37:01.475Z,19.30
2017-11-01T18:39:27.868Z,18.87
2017-11-01T18:41:54.268Z,17.60
2017-11-01T18:44:20.699Z,17.70
2017-11-01T18:46:47.708Z,17.23
2017-11-01T18:49:14.240Z,16.70
2017-11-01T18:51:41.384Z,18.80
2017-11-01T18:54:08.556Z,21.37
2017-11-01T18:56:35.052Z,12.43
2017-11-01T18:59:01.504Z,15.67
2017-11-01T19:01:28.682Z,18.53
2017-11-01T19:03:55.103Z,29.50
2017-11-01T19:06:21.586Z,50.00
2017-11-01T19:08:47.984Z,49.53
2017-11-01T19:11:14.380Z,46.70
2017-11-01T19:13:41.575Z,43.23
2017-11-01T19:16:08.313Z,43.93
2017-11-01T19:18:35.977Z,43.77
2017-11-01T19:21:02.413Z,46.50
2017-11-01T19:23:29.204Z,47.70
2017-11-01T19:25:56.533Z,36.80
2017-11-01T19:28:23.723Z,37.40
2017-11-01T19:30:50.216Z,36.63
2017-11-01T19:33:16.755Z,39.60
2017-11-01T19:35:43.207Z,37.40
2017-11-01T19:38:09.732Z,38.10
2017-11-01T19:40:36.888Z,33.20
2017-11-01T19:43:03.325Z,33.67
2017-11-01T19:45:30.500Z,36.13
2017-11-01T19:47:56.896Z,32.60
2017-11-01T19:50:23.317Z,35.70
2017-11-01T19:52:49.738Z,28.50
2017-11-01T19:55:16.152Z,35.53
2017-11-01T19:57:42.620Z,36.20
2017-11-01T20:00:09.793Z,37.40
2017-11-01T20:02:36.928Z,35.17
2017-11-01T20:05:03.387Z,35.77
2017-11-01T20:07:30.655Z,29.63
2017-11-01T20:09:57.060Z,35.17
2017-11-01T20:12:24.215Z,24.20
2017-11-01T20:14:51.400Z,30.80
2017-11-01T20:17:17.839Z,25.77
2017-11-01T20:19:44.272Z,22.67
2017-11-01T20:22:10.669Z,21.63
2017-11-01T20:24:37.852Z,22.37
2017-11-01T20:27:04.282Z,20.00
2017-11-01T20:29:30.733Z,22.93
2017-11-01T20:31:57.172Z,21.37
2017-11-01T20:34:23.644Z,20.27
2017-11-01T20:36:50.316Z,24.87
2017-11-01T20:39:16.808Z,20.90
2017-11-01T20:41:43.989Z,21.63
2017-11-01T20:44:10.388Z,26.63
2017-11-01T20:46:36.825Z,27.90
2017-11-01T20:49:03.294Z,33.47
2017-11-01T20:51:29.756Z,23.60
2017-11-01T20:53:56.243Z,25.67
2017-11-01T20:56:22.902Z,21.07
2017-11-01T20:58:49.589Z,21.90
2017-11-01T21:01:16.825Z,20.53
2017-11-01T21:03:43.274Z,20.67
2017-11-01T21:06:09.664Z,19.20
2017-11-01T21:08:36.097Z,21.80
2017-11-01T21:11:02.531Z,21.53
2017-11-01T21:13:29.069Z,18.48
2017-11-01T21:15:55.508Z,26.50
2017-11-01T21:18:21.896Z,25.30
2017-11-01T21:20:49.127Z,28.63
2017-11-01T21:23:15.979Z,22.17
2017-11-01T21:25:43.163Z,28.55
2017-11-01T21:28:09.592Z,25.12
2017-11-01T21:30:35.995Z,24.47
2017-11-01T21:33:02.524Z,22.33
2017-11-01T21:35:29.090Z,24.23
2017-11-01T21:37:55.520Z,27.98
2017-11-01T21:40:22.659Z,27.10
2017-11-01T21:42:49.827Z,34.83
2017-11-01T21:45:16.248Z,33.55
2017-11-01T21:47:43.381Z,37.03
2017-11-01T21:50:09.795Z,34.43
2017-11-01T21:52:36.189Z,30.75
2017-11-01T21:55:02.619Z,32.23
2017-11-01T21:57:29.008Z,33.22
2017-11-01T21:59:55.407Z,37.45
2017-11-01T22:02:21.826Z,36.47
2017-11-01T22:04:48.240Z,30.17
2017-11-01T22:07:14.632Z,32.90
2017-11-01T22:09:41.800Z,26.87
2017-11-01T22:12:08.991Z,29.77
2017-11-01T22:14:35.383Z,25.23
2017-11-01T22:17:02.516Z,30.65
2017-11-01T22:19:28.961Z,31.35
2017-11-01T22:21:56.265Z,32.45
2017-11-01T22:24:22.659Z,32.83
2017-11-01T22:26:49.802Z,30.12
2017-11-01T22:29:16.955Z,28.80
2017-11-01T22:31:44.184Z,35.03
2017-11-01T22:34:10.616Z,32.33
2017-11-01T22:36:37.040Z,30.88
2017-11-01T22:39:03.484Z,33.42
2017-11-01T22:41:29.903Z,25.70
2017-11-01T22:43:56.298Z,27.17
2017-11-01T22:46:22.732Z,29.75
2017-11-01T22:48:49.157Z,22.75
2017-11-01T22:51:15.568Z,29.65
2017-11-01T22:53:42.761Z,22.02
2017-11-01T22:56:09.176Z,26.12
2017-11-01T22:58:35.620Z,20.58
2017-11-01T23:01:02.083Z,21.30
2017-11-01T23:03:28.488Z,16.95
2017-11-01T23:05:54.919Z,17.48
2017-11-01T23:08:21.327Z,18.75
2017-11-01T23:10:47.756Z,22.40
2017-11-01T23:13:14.931Z,18.87
2017-11-01T23:15:41.331Z,16.45
2017-11-01T23:18:07.772Z,21.67
2017-11-01T23:20:34.904Z,21.40
2017-11-01T23:23:01.426Z,17.83
2017-11-01T23:25:27.830Z,18.27
2017-11-01T23:27:54.223Z,16.30
2017-11-01T23:30:21.425Z,20.10
2017-11-01T23:32:47.816Z,18.15
2017-11-01T23:35:14.252Z,30.62
2017-11-01T23:37:40.648Z,23.12
2017-11-01T23:40:07.036Z,24.10
2017-11-01T23:42:33.446Z,16.37
2017-11-01T23:44:59.852Z,21.15
2017-11-01T23:47:26.275Z,19.27
2017-11-01T23:49:52.664Z,13.70
2017-11-01T23:52:19.067Z,21.85
2017-11-01T23:54:46.187Z,13.98
2017-11-01T23:57:12.593Z,17.12
2017-11-01T23:59:39.025Z,14.60
